createdAt,value
2019-06-07T00:00:38.877Z,15.70
2019-06-07T00:02:53.170Z,15.64
2019-06-07T00:05:22.636Z,15.74
2019-06-07T00:07:52.092Z,15.69
2019-06-07T00:10:36.182Z,15.53
2019-06-07T00:12:52.727Z,15.66
2019-06-07T00:15:28.781Z,15.67
2019-06-07T00:17:53.405Z,15.69
2019-06-07T00:20:23.895Z,15.72
2019-06-07T00:22:53.431Z,15.64
2019-06-07T00:25:24.428Z,15.67
2019-06-07T00:27:54.198Z,15.61
2019-06-07T00:30:44.550Z,15.59
2019-06-07T00:32:55.058Z,15.58
2019-06-07T00:35:24.506Z,15.64
2019-06-07T00:37:53.965Z,15.64
2019-06-07T00:40:31.083Z,15.72
2019-06-07T00:42:54.568Z,15.77
2019-06-07T00:45:24.858Z,15.84
2019-06-07T00:47:54.463Z,15.93
2019-06-07T00:50:24.450Z,15.84
2019-06-07T00:55:27.484Z,15.75
2019-06-07T00:57:56.626Z,15.85
2019-06-07T01:00:26.427Z,15.83
2019-06-07T01:02:55.947Z,15.92
2019-06-07T01:05:31.023Z,15.93
2019-06-07T01:07:56.570Z,15.47
2019-06-07T01:10:51.588Z,15.46
2019-06-07T01:12:57.180Z,15.39
2019-06-07T01:15:36.109Z,15.41
2019-06-07T01:18:35.984Z,15.57
2019-06-07T01:20:36.860Z,15.57
2019-06-07T01:23:52.060Z,15.64
2019-06-07T01:25:37.547Z,15.75
2019-06-07T01:28:07.003Z,15.59
2019-06-07T01:30:36.453Z,15.58
2019-06-07T01:33:06.062Z,15.54
2019-06-07T01:35:35.592Z,15.61
2019-06-07T01:38:05.225Z,15.74
2019-06-07T01:40:34.674Z,15.79
2019-06-07T01:43:04.118Z,15.79
2019-06-07T01:45:33.576Z,15.78
2019-06-07T01:48:03.061Z,15.68
2019-06-07T01:50:32.499Z,15.56
2019-06-07T01:53:01.962Z,15.63
2019-06-07T01:55:32.789Z,15.57
2019-06-07T01:58:02.446Z,15.56
2019-06-07T02:00:32.776Z,15.65
2019-06-07T02:03:02.441Z,15.61
2019-06-07T02:05:32.455Z,15.63
2019-06-07T02:08:01.982Z,15.49
2019-06-07T02:10:33.770Z,15.32
2019-06-07T02:13:02.762Z,15.45
2019-06-07T02:15:36.700Z,15.51
2019-06-07T02:18:03.544Z,15.59
2019-06-07T02:20:34.556Z,15.55
2019-06-07T02:23:04.476Z,15.23
2019-06-07T02:25:43.766Z,15.14
2019-06-07T02:28:27.304Z,14.93
2019-06-07T02:30:47.535Z,14.87
2019-06-07T02:33:07.926Z,14.84
2019-06-07T02:35:40.655Z,14.87
2019-06-07T02:38:08.557Z,14.89
2019-06-07T02:40:37.993Z,14.89
2019-06-07T02:43:07.641Z,14.97
2019-06-07T02:45:43.051Z,15.00
2019-06-07T02:48:08.486Z,15.04
2019-06-07T02:50:38.992Z,15.10
2019-06-07T02:53:08.530Z,14.98
2019-06-07T02:56:32.883Z,14.74
2019-06-07T02:58:09.273Z,14.84
2019-06-07T03:01:06.643Z,15.00
2019-06-07T03:03:19.784Z,14.91
2019-06-07T03:05:49.883Z,14.98
2019-06-07T03:08:19.486Z,14.87
2019-06-07T03:10:51.036Z,14.84
2019-06-07T03:13:22.458Z,14.70
2019-06-07T03:15:53.833Z,14.65
2019-06-07T03:18:41.974Z,14.55
2019-06-07T03:21:18.819Z,14.77
2019-06-07T03:23:48.537Z,14.73
2019-06-07T03:26:19.037Z,14.82
2019-06-07T03:28:48.562Z,15.04
2019-06-07T03:31:18.025Z,15.10
2019-06-07T03:33:47.500Z,14.92
2019-06-07T03:36:23.736Z,14.97
2019-06-07T03:38:48.173Z,14.82
2019-06-07T03:41:17.618Z,14.91
2019-06-07T03:43:47.081Z,15.02
2019-06-07T03:46:16.529Z,14.95
2019-06-07T03:48:45.979Z,14.88
2019-06-07T03:51:24.702Z,14.96
2019-06-07T03:53:46.605Z,15.01
2019-06-07T03:56:16.291Z,14.88
2019-06-07T03:58:50.174Z,14.71
2019-06-07T04:01:17.094Z,14.91
2019-06-07T04:03:51.742Z,14.92
2019-06-07T04:06:17.723Z,14.87
2019-06-07T04:08:47.220Z,14.75
2019-06-07T04:11:16.682Z,14.91
2019-06-07T04:13:46.127Z,14.89
2019-06-07T04:16:15.595Z,15.01
2019-06-07T04:18:45.051Z,15.13
2019-06-07T04:21:14.503Z,15.09
2019-06-07T04:23:45.640Z,15.17
2019-06-07T04:26:15.149Z,15.19
2019-06-07T04:31:15.772Z,15.48
2019-06-07T04:33:45.303Z,15.39
2019-06-07T04:36:15.012Z,15.43
2019-06-07T04:38:45.738Z,15.58
2019-06-07T04:41:15.517Z,15.55
2019-06-07T04:43:46.006Z,15.65
2019-06-07T04:46:16.796Z,15.75
2019-06-07T04:48:47.898Z,15.87
2019-06-07T04:51:18.581Z,15.91
2019-06-07T04:53:48.104Z,16.07
2019-06-07T04:56:17.560Z,16.12
2019-06-07T04:58:47.004Z,16.07
2019-06-07T05:01:27.396Z,16.11
2019-06-07T05:03:47.627Z,16.23
2019-06-07T05:06:17.076Z,16.21
2019-06-07T05:08:46.543Z,16.43
2019-06-07T05:11:15.999Z,16.55
2019-06-07T05:13:45.507Z,16.74
2019-06-07T05:16:14.927Z,16.81
2019-06-07T05:18:44.370Z,16.80
2019-06-07T05:21:13.890Z,16.61
2019-06-07T05:24:05.666Z,16.75
2019-06-07T05:26:14.575Z,16.68
2019-06-07T05:28:44.048Z,16.55
2019-06-07T05:31:13.779Z,16.69
2019-06-07T05:33:43.557Z,16.79
2019-06-07T05:36:13.270Z,16.83
2019-06-07T05:38:44.954Z,16.88
2019-06-07T05:41:13.894Z,17.01
2019-06-07T05:43:51.514Z,17.05
2019-06-07T05:46:14.553Z,17.12
2019-06-07T05:48:44.031Z,17.42
2019-06-07T05:51:13.466Z,17.49
2019-06-07T05:53:45.855Z,17.62
2019-06-07T05:56:14.766Z,17.83
2019-06-07T05:58:44.841Z,17.85
2019-06-07T06:01:42.387Z,17.89
2019-06-07T06:03:48.206Z,17.70
2019-06-07T06:06:16.642Z,17.56
2019-06-07T06:08:47.973Z,17.71
2019-06-07T06:11:17.307Z,17.95
2019-06-07T06:14:05.226Z,18.01
2019-06-07T06:16:17.940Z,18.00
2019-06-07T06:18:49.053Z,17.97
2019-06-07T06:21:20.186Z,18.16
2019-06-07T06:23:51.857Z,18.30
2019-06-07T06:26:20.997Z,18.13
2019-06-07T06:28:50.455Z,18.34
2019-06-07T06:31:19.894Z,18.46
2019-06-07T06:33:50.058Z,18.20
2019-06-07T06:36:20.085Z,18.43
2019-06-07T06:38:51.603Z,18.44
2019-06-07T06:41:21.219Z,18.44
2019-06-07T06:43:52.622Z,18.62
2019-06-07T06:46:38.012Z,18.75
2019-06-07T06:48:55.106Z,18.66
2019-06-07T06:51:24.353Z,18.79
2019-06-07T06:53:53.799Z,18.81
2019-06-07T06:56:24.304Z,18.90
2019-06-07T06:59:35.380Z,19.03
2019-06-07T07:01:25.044Z,18.94
2019-06-07T07:04:11.059Z,19.08
2019-06-07T07:06:27.135Z,19.18
2019-06-07T07:08:57.666Z,19.37
2019-06-07T07:11:27.121Z,19.42
2019-06-07T07:13:57.336Z,19.65
2019-06-07T07:16:26.996Z,19.74
2019-06-07T07:18:56.455Z,19.44
2019-06-07T07:21:25.901Z,19.51
2019-06-07T07:24:19.791Z,19.97
2019-06-07T07:26:26.567Z,20.20
2019-06-07T07:28:57.769Z,20.32
2019-06-07T07:31:27.248Z,20.49
2019-06-07T07:34:28.293Z,20.58
2019-06-07T07:36:38.852Z,20.64
2019-06-07T07:39:04.578Z,20.91
2019-06-07T07:41:30.247Z,20.98
2019-06-07T07:44:05.953Z,21.12
2019-06-07T07:46:31.171Z,21.06
2019-06-07T07:49:00.636Z,21.21
2019-06-07T07:51:30.099Z,21.26
2019-06-07T07:54:10.255Z,21.32
2019-06-07T07:56:30.725Z,21.20
2019-06-07T07:59:01.662Z,21.18
2019-06-07T08:01:31.346Z,21.51
2019-06-07T08:04:00.816Z,21.41
2019-06-07T08:06:30.294Z,21.60
2019-06-07T08:08:59.720Z,21.41
2019-06-07T08:11:29.166Z,21.18
2019-06-07T08:13:58.961Z,21.21
2019-06-07T08:16:28.424Z,21.09
2019-06-07T08:19:03.593Z,21.23
2019-06-07T08:21:29.069Z,21.36
2019-06-07T08:24:03.761Z,21.41
2019-06-07T08:26:29.689Z,21.54
2019-06-07T08:29:02.676Z,21.59
2019-06-07T08:31:30.321Z,21.42
2019-06-07T08:34:00.721Z,21.38
2019-06-07T08:36:41.227Z,21.40
2019-06-07T08:39:07.210Z,21.41
2019-06-07T08:41:32.890Z,21.44
2019-06-07T08:44:22.410Z,21.60
2019-06-07T08:46:33.510Z,21.51
2019-06-07T08:49:04.741Z,21.59
2019-06-07T08:51:34.149Z,21.60
2019-06-07T08:54:21.613Z,21.73
2019-06-07T08:56:34.767Z,21.65
2019-06-07T08:59:11.249Z,21.73
2019-06-07T09:01:35.729Z,21.56
2019-06-07T09:04:10.581Z,21.55
2019-06-07T09:09:09.410Z,21.69
2019-06-07T09:11:38.919Z,21.68
2019-06-07T09:14:09.390Z,21.79
2019-06-07T09:16:39.021Z,21.77
2019-06-07T09:19:11.004Z,21.64
2019-06-07T09:21:39.635Z,21.68
2019-06-07T09:24:11.730Z,21.42
2019-06-07T09:26:40.422Z,21.94
2019-06-07T09:29:12.038Z,22.08
2019-06-07T09:31:52.610Z,22.10
2019-06-07T09:34:15.098Z,22.06
2019-06-07T09:36:44.112Z,21.98
2019-06-07T09:39:13.558Z,22.00
2019-06-07T09:41:49.682Z,22.26
2019-06-07T09:44:24.936Z,22.67
2019-06-07T09:46:45.355Z,22.88
2019-06-07T09:49:28.594Z,22.97
2019-06-07T09:51:45.982Z,23.12
2019-06-07T09:55:02.672Z,22.88
2019-06-07T09:56:46.708Z,23.17
2019-06-07T09:59:16.177Z,23.24
2019-06-07T10:01:45.602Z,23.45
2019-06-07T10:04:30.198Z,23.90
2019-06-07T10:06:46.294Z,24.03
2019-06-07T10:11:46.953Z,23.83
2019-06-07T10:14:16.394Z,23.64
2019-06-07T10:16:47.503Z,23.61
2019-06-07T10:19:17.026Z,24.04
2019-06-07T10:21:46.490Z,24.31
2019-06-07T10:24:15.922Z,24.36
2019-06-07T10:26:45.371Z,23.92
2019-06-07T10:29:14.837Z,24.01
2019-06-07T10:31:44.382Z,24.11
2019-06-07T10:34:13.869Z,24.32
2019-06-07T10:36:43.313Z,24.47
2019-06-07T10:39:12.762Z,24.89
2019-06-07T10:41:42.199Z,24.97
2019-06-07T10:44:11.655Z,24.54
2019-06-07T10:46:41.097Z,24.50
2019-06-07T10:49:10.571Z,24.35
2019-06-07T10:51:40.015Z,24.26
2019-06-07T10:54:23.451Z,23.99
2019-06-07T10:56:40.677Z,24.38
2019-06-07T10:59:11.848Z,24.33
2019-06-07T11:01:41.331Z,24.45
2019-06-07T11:04:11.762Z,24.66
2019-06-07T11:06:41.312Z,24.56
2019-06-07T11:09:11.965Z,24.90
2019-06-07T11:11:41.512Z,24.99
2019-06-07T11:14:10.952Z,25.30
2019-06-07T11:16:40.492Z,25.46
2019-06-07T11:19:13.893Z,25.66
2019-06-07T11:21:41.116Z,25.88
2019-06-07T11:24:10.576Z,26.11
2019-06-07T11:26:40.045Z,26.26
2019-06-07T11:29:10.918Z,26.20
2019-06-07T11:31:40.517Z,26.09
2019-06-07T11:34:10.463Z,26.08
2019-06-07T11:36:39.994Z,26.23
2019-06-07T11:39:11.102Z,26.53
2019-06-07T11:41:40.769Z,26.67
2019-06-07T11:44:10.968Z,26.83
2019-06-07T11:46:40.520Z,26.89
2019-06-07T11:49:10.901Z,27.03
2019-06-07T11:51:40.904Z,27.03
2019-06-07T11:54:11.944Z,27.28
2019-06-07T11:56:41.604Z,27.42
2019-06-07T11:59:11.229Z,27.21
2019-06-07T12:01:40.783Z,27.40
2019-06-07T12:04:11.479Z,27.21
2019-06-07T12:06:41.047Z,27.46
2019-06-07T12:09:10.696Z,27.66
2019-06-07T12:11:40.312Z,27.70
2019-06-07T12:14:10.959Z,28.18
2019-06-07T12:16:40.665Z,27.92
2019-06-07T12:19:11.692Z,28.23
2019-06-07T12:21:41.363Z,27.97
2019-06-07T12:24:12.076Z,28.41
2019-06-07T12:26:41.643Z,28.64
2019-06-07T12:29:11.254Z,28.70
2019-06-07T12:31:40.747Z,28.69
2019-06-07T12:34:11.261Z,28.92
2019-06-07T12:36:40.901Z,29.11
2019-06-07T12:39:10.411Z,29.27
2019-06-07T12:41:39.860Z,28.96
2019-06-07T12:44:09.396Z,29.24
2019-06-07T12:46:38.845Z,29.52
2019-06-07T12:49:08.301Z,29.89
2019-06-07T12:51:37.750Z,30.16
2019-06-07T12:54:07.200Z,30.45
2019-06-07T12:56:36.666Z,30.88
2019-06-07T12:59:06.119Z,31.13
2019-06-07T13:01:35.615Z,31.58
2019-06-07T13:04:05.209Z,32.10
2019-06-07T13:06:34.673Z,32.26
2019-06-07T13:09:04.620Z,32.10
2019-06-07T13:11:34.074Z,31.54
2019-06-07T13:14:03.595Z,32.05
2019-06-07T13:16:33.083Z,32.23
2019-06-07T13:19:02.558Z,32.90
2019-06-07T13:21:32.058Z,32.91
2019-06-07T13:24:01.461Z,33.05
2019-06-07T13:26:30.921Z,33.04
2019-06-07T13:29:00.463Z,32.12
2019-06-07T13:31:29.906Z,32.77
2019-06-07T13:33:59.368Z,32.85
2019-06-07T13:36:28.807Z,31.76
2019-06-07T13:38:58.611Z,32.02
2019-06-07T13:41:40.374Z,31.52
2019-06-07T13:43:59.272Z,31.01
2019-06-07T13:46:28.758Z,30.95
2019-06-07T13:48:58.306Z,30.93
2019-06-07T13:51:28.927Z,30.54
2019-06-07T13:53:58.629Z,30.92
2019-06-07T13:56:28.404Z,31.42
2019-06-07T13:58:58.030Z,31.78
2019-06-07T14:01:29.066Z,31.96
2019-06-07T14:03:58.804Z,32.45
2019-06-07T14:06:30.011Z,32.56
2019-06-07T14:08:59.512Z,33.15
2019-06-07T14:11:31.509Z,34.75
2019-06-07T14:14:00.278Z,35.90
2019-06-07T14:16:30.448Z,36.38
2019-06-07T14:18:59.960Z,36.64
2019-06-07T14:21:30.766Z,37.51
2019-06-07T14:24:00.442Z,38.53
2019-06-07T14:26:29.928Z,38.90
2019-06-07T14:28:59.326Z,38.94
2019-06-07T14:31:30.155Z,39.47
2019-06-07T14:33:59.731Z,38.86
2019-06-07T14:36:29.174Z,39.27
2019-06-07T14:38:58.654Z,39.38
2019-06-07T14:41:29.562Z,40.15
2019-06-07T14:43:59.147Z,40.01
2019-06-07T14:46:30.161Z,39.42
2019-06-07T14:48:59.854Z,39.95
2019-06-07T14:51:31.769Z,40.38
2019-06-07T14:54:00.980Z,40.24
2019-06-07T14:56:31.325Z,40.05
2019-06-07T14:59:00.922Z,40.46
2019-06-07T15:01:30.789Z,41.19
2019-06-07T15:04:01.147Z,41.68
2019-06-07T15:06:30.724Z,41.63
2019-06-07T15:09:00.267Z,40.90
2019-06-07T15:11:31.064Z,40.50
2019-06-07T15:14:00.647Z,41.01
2019-06-07T15:16:31.917Z,40.78
2019-06-07T15:19:01.545Z,40.30
2019-06-07T15:21:31.007Z,40.34
2019-06-07T15:24:00.449Z,40.03
2019-06-07T15:26:30.219Z,41.11
2019-06-07T15:28:59.739Z,40.51
2019-06-07T15:31:29.879Z,41.27
2019-06-07T15:33:59.432Z,41.47
2019-06-07T15:36:30.185Z,41.91
2019-06-07T15:38:59.821Z,41.45
2019-06-07T15:41:30.824Z,42.31
2019-06-07T15:44:00.314Z,42.49
2019-06-07T15:46:29.765Z,42.11
2019-06-07T15:48:59.213Z,42.33
2019-06-07T15:51:28.666Z,42.91
2019-06-07T15:53:58.110Z,42.81
2019-06-07T15:56:27.571Z,42.68
2019-06-07T15:58:57.025Z,41.64
2019-06-07T16:01:26.480Z,39.87
2019-06-07T16:03:56.022Z,39.46
2019-06-07T16:06:25.455Z,37.68
2019-06-07T16:08:54.901Z,36.91
2019-06-07T16:11:24.364Z,36.12
2019-06-07T16:13:53.836Z,35.00
2019-06-07T16:16:23.623Z,34.98
2019-06-07T16:18:53.100Z,34.53
2019-06-07T16:21:22.546Z,34.31
2019-06-07T16:23:51.992Z,33.76
2019-06-07T16:26:21.448Z,33.41
2019-06-07T16:28:50.965Z,33.03
2019-06-07T16:31:20.424Z,32.40
2019-06-07T16:33:49.877Z,31.72
2019-06-07T16:36:19.330Z,31.33
2019-06-07T16:38:48.777Z,31.12
2019-06-07T16:41:18.217Z,30.62
2019-06-07T16:43:48.991Z,30.18
2019-06-07T16:46:18.652Z,29.98
2019-06-07T16:48:49.122Z,29.86
2019-06-07T16:51:18.627Z,29.66
2019-06-07T16:53:48.616Z,29.72
2019-06-07T16:56:18.136Z,29.49
2019-06-07T16:58:48.677Z,29.21
2019-06-07T17:01:18.240Z,29.12
2019-06-07T17:03:47.697Z,29.14
2019-06-07T17:06:17.142Z,28.82
2019-06-07T17:08:46.607Z,28.56
2019-06-07T17:11:16.053Z,28.44
2019-06-07T17:13:46.452Z,28.40
2019-06-07T17:16:15.983Z,28.20
2019-06-07T17:18:45.449Z,28.13
2019-06-07T17:21:14.892Z,28.14
2019-06-07T17:23:45.343Z,28.05
2019-06-07T17:26:14.785Z,27.98
2019-06-07T17:28:44.237Z,28.03
2019-06-07T17:31:13.752Z,27.91
2019-06-07T17:33:43.962Z,27.70
2019-06-07T17:36:13.615Z,27.63
2019-06-07T17:38:44.431Z,27.49
2019-06-07T17:41:14.094Z,27.24
2019-06-07T17:43:51.758Z,27.09
2019-06-07T17:46:14.717Z,27.15
2019-06-07T17:48:45.461Z,27.13
2019-06-07T17:51:15.012Z,27.14
2019-06-07T17:53:45.737Z,26.98
2019-06-07T17:56:15.403Z,26.94
2019-06-07T17:58:44.844Z,26.73
2019-06-07T18:01:14.298Z,26.46
2019-06-07T18:03:45.008Z,26.00
2019-06-07T18:06:16.325Z,26.07
2019-06-07T18:08:47.503Z,26.05
2019-06-07T18:11:17.056Z,26.11
2019-06-07T18:13:46.510Z,26.16
2019-06-07T18:16:17.268Z,25.65
2019-06-07T18:18:46.869Z,25.62
2019-06-07T18:21:16.342Z,24.56
2019-06-07T18:23:46.211Z,23.94
2019-06-07T18:26:15.670Z,23.57
2019-06-07T18:28:46.505Z,22.42
2019-06-07T18:31:17.001Z,20.25
2019-06-07T18:33:46.846Z,19.37
2019-06-07T18:36:16.394Z,18.55
2019-06-07T18:38:46.877Z,18.03
2019-06-07T18:41:16.392Z,17.67
2019-06-07T18:43:47.047Z,17.76
2019-06-07T18:46:16.569Z,17.65
2019-06-07T18:48:46.448Z,17.56
2019-06-07T18:51:18.564Z,17.32
2019-06-07T18:53:48.034Z,17.40
2019-06-07T18:56:17.483Z,17.39
2019-06-07T18:58:47.217Z,17.36
2019-06-07T19:01:17.111Z,17.28
2019-06-07T19:03:48.370Z,17.16
2019-06-07T19:06:18.158Z,17.01
2019-06-07T19:08:48.439Z,16.94
2019-06-07T19:11:18.211Z,17.07
2019-06-07T19:13:48.843Z,16.78
2019-06-07T19:16:18.388Z,16.73
2019-06-07T19:18:47.831Z,16.89
2019-06-07T19:21:17.283Z,16.89
2019-06-07T19:23:46.728Z,16.80
2019-06-07T19:26:16.169Z,17.08
2019-06-07T19:28:45.633Z,16.97
2019-06-07T19:31:15.071Z,17.12
2019-06-07T19:33:48.961Z,17.25
2019-06-07T19:36:16.449Z,17.33
2019-06-07T19:38:45.906Z,17.49
2019-06-07T19:41:19.705Z,17.50
2019-06-07T19:43:46.536Z,17.48
2019-06-07T19:46:15.975Z,17.43
2019-06-07T19:48:45.446Z,17.66
2019-06-07T19:51:14.893Z,17.70
2019-06-07T19:53:44.334Z,17.73
2019-06-07T19:56:13.835Z,17.66
2019-06-07T19:58:43.239Z,17.49
2019-06-07T20:01:12.679Z,17.53
2019-06-07T20:03:42.137Z,17.52
2019-06-07T20:06:11.580Z,17.43
2019-06-07T20:08:41.032Z,17.32
2019-06-07T20:11:10.501Z,17.26
2019-06-07T20:13:39.947Z,17.07
2019-06-07T20:16:09.405Z,17.09
2019-06-07T20:18:38.864Z,17.13
2019-06-07T20:21:09.198Z,16.94
2019-06-07T20:23:39.265Z,17.01
2019-06-07T20:26:08.899Z,17.22
2019-06-07T20:28:38.407Z,17.36
2019-06-07T20:31:08.307Z,17.32
2019-06-07T20:33:38.041Z,17.42
2019-06-07T20:36:08.979Z,17.42
2019-06-07T20:38:38.620Z,17.47
2019-06-07T20:41:08.153Z,17.46
2019-06-07T20:43:37.648Z,17.53
2019-06-07T20:46:08.219Z,17.42
2019-06-07T20:48:37.907Z,17.51
2019-06-07T20:51:08.673Z,17.54
2019-06-07T20:53:38.298Z,17.56
2019-06-07T20:56:10.424Z,17.65
2019-06-07T20:58:39.864Z,17.68
2019-06-07T21:01:09.324Z,17.67
2019-06-07T21:03:38.762Z,17.62
2019-06-07T21:06:08.218Z,17.62
2019-06-07T21:08:37.670Z,17.61
2019-06-07T21:11:07.763Z,17.58
2019-06-07T21:13:37.376Z,17.58
2019-06-07T21:16:08.184Z,17.70
2019-06-07T21:18:37.827Z,17.74
2019-06-07T21:21:08.475Z,17.67
2019-06-07T21:23:38.005Z,17.71
2019-06-07T21:26:07.462Z,17.54
2019-06-07T21:28:39.693Z,17.55
2019-06-07T21:31:08.271Z,17.33
2019-06-07T21:33:37.806Z,17.26
2019-06-07T21:36:07.778Z,17.00
2019-06-07T21:38:37.294Z,16.86
2019-06-07T21:41:06.729Z,17.03
2019-06-07T21:43:36.186Z,16.97
2019-06-07T21:46:12.031Z,16.82
2019-06-07T21:48:36.902Z,16.67
2019-06-07T21:51:06.450Z,16.71
2019-06-07T21:53:35.878Z,16.56
2019-06-07T21:56:06.848Z,16.55
2019-06-07T21:58:36.459Z,16.61
2019-06-07T22:01:14.202Z,16.42
2019-06-07T22:03:43.961Z,16.42
2019-06-07T22:06:13.868Z,16.40
2019-06-07T22:08:43.401Z,16.20
2019-06-07T22:11:14.036Z,16.24
2019-06-07T22:13:43.576Z,16.21
2019-06-07T22:16:26.811Z,16.18
2019-06-07T22:18:44.208Z,16.10
2019-06-07T22:21:14.798Z,16.13
2019-06-07T22:23:44.299Z,16.16
2019-06-07T22:26:13.806Z,16.13
2019-06-07T22:28:43.630Z,16.13
2019-06-07T22:31:13.081Z,16.00
2019-06-07T22:33:43.204Z,15.89
2019-06-07T22:36:13.217Z,15.99
2019-06-07T22:38:42.779Z,15.89
2019-06-07T22:41:12.721Z,16.10
2019-06-07T22:43:43.440Z,16.22
2019-06-07T22:46:13.064Z,16.11
2019-06-07T22:48:42.521Z,16.06
2019-06-07T22:51:13.197Z,16.23
2019-06-07T22:53:43.227Z,16.27
2019-06-07T22:56:18.248Z,16.32
2019-06-07T22:58:47.779Z,16.38
2019-06-07T23:01:17.240Z,16.40
2019-06-07T23:03:46.679Z,16.42
2019-06-07T23:06:16.781Z,16.40
2019-06-07T23:08:46.367Z,16.26
2019-06-07T23:11:17.232Z,16.21
2019-06-07T23:13:46.846Z,16.10
2019-06-07T23:16:17.494Z,16.19
2019-06-07T23:18:47.129Z,16.23
2019-06-07T23:21:17.819Z,16.20
2019-06-07T23:23:47.404Z,16.28
2019-06-07T23:26:16.859Z,16.32
2019-06-07T23:28:46.302Z,16.22
2019-06-07T23:31:16.581Z,16.04
2019-06-07T23:33:46.092Z,16.02
2019-06-07T23:36:17.100Z,15.78
2019-06-07T23:38:46.857Z,15.77
2019-06-07T23:41:17.622Z,15.67
2019-06-07T23:43:47.140Z,15.66
2019-06-07T23:46:17.455Z,15.66
2019-06-07T23:48:46.938Z,15.65
2019-06-07T23:51:17.613Z,15.61
2019-06-07T23:53:47.498Z,15.57
2019-06-07T23:56:18.620Z,15.46
2019-06-07T23:58:48.100Z,15.43
